Time;durP1;ratioP1;P1;durP2;ratioP2;P2;SDS_P1;SDS_P2;PMS_P1;PMS_P2;Temp;Humidity;BMP_temperature;BMP_pressure;BME280_temperature;BME280_humidity;BME280_pressure;Samples;Min_cycle;Max_cycle;Signal;HPM_P1;HPM_P2
2021/05/15 00:00:13;;;;;;;4.28;3.63;;;;;;;11.89;65.78;99634.45;128081;1102;22412;-76
2021/05/15 00:03:01;;;;;;;5.00;3.23;;;;;;;11.88;65.83;99632.01;128127;1101;22349;-76
2021/05/15 00:05:31;;;;;;;4.78;3.35;;;;;;;11.87;65.66;99633.84;128062;1101;23119;-76
2021/05/15 00:08:03;;;;;;;5.80;3.50;;;;;;;11.86;65.80;99634.02;128080;1102;23322;-75
2021/05/15 00:10:32;;;;;;;4.28;3.68;;;;;;;11.82;65.75;99628.27;128062;1101;22342;-76
2021/05/15 00:13:01;;;;;;;4.93;4.03;;;;;;;11.80;65.85;99632.95;128259;1098;25769;-75
2021/05/15 00:15:30;;;;;;;5.15;3.35;;;;;;;11.76;65.74;99635.17;128229;1100;22356;-76
2021/05/15 00:17:58;;;;;;;5.10;3.15;;;;;;;11.70;65.86;99632.47;128307;1101;22346;-76
2021/05/15 00:20:27;;;;;;;5.80;3.58;;;;;;;11.65;65.79;99635.67;128099;1099;24473;-77
2021/05/15 00:22:56;;;;;;;4.33;3.13;;;;;;;11.63;65.88;99632.42;128205;1101;22327;-75
2021/05/15 00:25:24;;;;;;;3.75;3.38;;;;;;;11.59;66.24;99631.15;128025;1101;22333;-75
2021/05/15 00:27:52;;;;;;;7.80;3.35;;;;;;;11.59;66.15;99630.33;128026;1103;22336;-75
2021/05/15 00:30:21;;;;;;;5.25;3.50;;;;;;;11.57;66.39;99641.13;128224;1101;22421;-75
2021/05/15 00:32:50;;;;;;;4.28;3.50;;;;;;;11.59;66.52;99632.98;128198;1101;23258;-75
2021/05/15 00:35:19;;;;;;;5.20;3.63;;;;;;;11.59;66.39;99633.80;128124;1098;22342;-75
2021/05/15 00:37:47;;;;;;;5.10;3.35;;;;;;;11.61;66.57;99646.84;128237;1100;22366;-76
2021/05/15 00:40:17;;;;;;;4.68;3.35;;;;;;;11.63;66.90;99639.52;128232;1101;22327;-77
2021/05/15 00:42:47;;;;;;;4.88;3.28;;;;;;;11.68;66.80;99645.06;128060;1101;22851;-76
2021/05/15 00:45:16;;;;;;;4.85;3.18;;;;;;;11.70;66.80;99638.58;128284;1100;24236;-75
2021/05/15 00:47:45;;;;;;;5.05;3.48;;;;;;;11.72;66.42;99638.38;128231;1098;24462;-76
2021/05/15 00:50:14;;;;;;;6.10;3.40;;;;;;;11.74;66.62;99639.83;128028;1102;22436;-76
2021/05/15 00:52:42;;;;;;;4.63;3.35;;;;;;;11.75;67.07;99637.98;128271;1101;23927;-76
2021/05/15 00:55:14;;;;;;;4.03;3.08;;;;;;;11.73;66.53;99635.55;128219;1101;22334;-76
2021/05/15 00:57:42;;;;;;;3.28;2.80;;;;;;;11.73;66.51;99635.55;128070;1102;22344;-75
2021/05/15 01:00:15;;;;;;;5.10;3.98;;;;;;;11.75;66.57;99637.98;128046;1102;22434;-75
2021/05/15 01:02:43;;;;;;;7.35;3.45;;;;;;;11.73;66.40;99634.73;128083;1102;22929;-76
2021/05/15 01:05:13;;;;;;;5.10;3.63;;;;;;;11.70;66.44;99635.94;128267;1101;22334;-75
2021/05/15 01:07:47;;;;;;;4.25;3.38;;;;;;;11.67;66.59;99643.44;128086;1098;24457;-76
2021/05/15 01:10:17;;;;;;;6.05;3.60;;;;;;;11.62;66.35;99638.70;128348;1101;22331;-76
2021/05/15 01:12:52;;;;;;;4.40;3.45;;;;;;;11.61;66.54;99634.44;128084;1100;24958;-76
2021/05/15 01:15:25;;;;;;;4.93;3.38;;;;;;;11.60;66.36;99646.03;128093;1101;22307;-76
2021/05/15 01:17:58;;;;;;;5.05;3.40;;;;;;;11.60;66.66;99640.74;128103;1101;22348;-75
2021/05/15 01:20:31;;;;;;;5.75;3.30;;;;;;;11.60;66.73;99639.93;128043;1102;22351;-75
2021/05/15 01:23:01;;;;;;;3.88;3.38;;;;;;;11.58;66.59;99645.39;128106;1102;22367;-76
2021/05/15 01:25:29;;;;;;;6.83;4.18;;;;;;;11.57;66.86;99638.48;128089;1101;22347;-76
2021/05/15 01:27:58;;;;;;;6.18;3.58;;;;;;;11.57;66.69;99645.60;128282;1101;22358;-74
2021/05/15 01:30:26;;;;;;;4.70;3.85;;;;;;;11.55;66.61;99648.42;128042;1101;22426;-76
2021/05/15 01:32:55;;;;;;;7.33;3.68;;;;;;;11.53;66.66;99643.34;128270;1100;22340;-75
2021/05/15 01:35:23;;;;;;;7.33;4.50;;;;;;;11.50;66.59;99642.90;128255;1100;22363;-75
2021/05/15 01:37:57;;;;;;;4.08;3.43;;;;;;;11.44;66.42;99636.54;128248;1101;22328;-76
2021/05/15 01:40:27;;;;;;;5.53;3.78;;;;;;;11.36;66.36;99635.84;128342;1101;22475;-76
2021/05/15 01:42:55;;;;;;;4.98;3.83;;;;;;;11.27;66.60;99635.98;128237;1101;22335;-75
2021/05/15 01:45:26;;;;;;;4.25;3.48;;;;;;;11.19;66.38;99636.09;128253;1101;22348;-75
2021/05/15 01:47:54;;;;;;;5.38;4.00;;;;;;;11.13;66.69;99634.23;128047;1101;24990;-74
2021/05/15 01:50:23;;;;;;;4.03;3.45;;;;;;;11.09;66.77;99635.59;128231;1101;22348;-75
2021/05/15 01:52:51;;;;;;;6.13;3.45;;;;;;;11.06;67.15;99643.89;128022;1101;22351;-76
2021/05/15 01:55:22;;;;;;;4.88;3.60;;;;;;;11.03;67.01;99644.30;128250;1100;22337;-75
2021/05/15 01:57:50;;;;;;;4.65;3.75;;;;;;;10.99;67.26;99649.12;128330;1101;24141;-75
2021/05/15 02:00:20;;;;;;;7.73;3.53;;;;;;;10.98;67.46;99642.20;128048;1099;24160;-75
2021/05/15 02:02:49;;;;;;;4.40;3.23;;;;;;;10.97;67.45;99645.05;128334;1099;22358;-75
2021/05/15 02:05:17;;;;;;;6.13;3.13;;;;;;;10.96;67.39;99646.03;128262;1100;24472;-75
2021/05/15 02:07:45;;;;;;;5.43;3.67;;;;;;;10.94;67.50;99653.34;128085;1101;22352;-76
2021/05/15 02:10:14;;;;;;;5.88;3.20;;;;;;;10.92;67.35;99652.70;128075;1101;22446;-76
2021/05/15 02:12:43;;;;;;;5.53;2.90;;;;;;;10.92;67.68;99652.70;128242;1100;22359;-76
2021/05/15 02:15:12;;;;;;;4.58;3.33;;;;;;;10.91;67.72;99653.72;128052;1101;22436;-75
2021/05/15 02:17:40;;;;;;;6.95;2.90;;;;;;;10.90;67.63;99650.27;128097;1100;24485;-75
2021/05/15 02:20:12;;;;;;;4.50;3.00;;;;;;;10.89;67.60;99653.89;128060;1100;24566;-76
2021/05/15 02:22:42;;;;;;;4.33;2.70;;;;;;;10.88;67.61;99649.62;128330;1101;22372;-76
2021/05/15 02:25:11;;;;;;;5.55;3.13;;;;;;;10.86;67.60;99650.80;128050;1099;24472;-76
2021/05/15 02:27:39;;;;;;;5.18;3.58;;;;;;;10.83;67.82;99657.30;128127;1101;25253;-75
2021/05/15 02:30:09;;;;;;;5.25;3.58;;;;;;;10.82;67.83;99651.17;128052;1101;25080;-75
2021/05/15 02:32:37;;;;;;;5.15;3.48;;;;;;;10.81;67.94;99648.73;128352;1101;22339;-76
2021/05/15 02:35:07;;;;;;;6.23;3.10;;;;;;;10.80;67.90;99652.39;128089;1101;22671;-76
2021/05/15 02:37:36;;;;;;;7.23;3.93;;;;;;;10.78;67.84;99654.39;128108;1100;22351;-76
2021/05/15 02:40:06;;;;;;;5.33;3.73;;;;;;;10.77;68.14;99658.85;128255;1101;22339;-76
2021/05/15 02:42:36;;;;;;;4.33;3.43;;;;;;;10.74;67.93;99651.30;128075;1102;22337;-76
2021/05/15 02:45:09;;;;;;;4.15;3.60;;;;;;;10.72;67.66;99648.02;128086;1102;22354;-76
2021/05/15 02:47:37;;;;;;;5.23;4.00;;;;;;;10.69;67.48;99653.66;128071;1101;22355;-76
2021/05/15 02:50:12;;;;;;;6.48;3.95;;;;;;;10.68;68.27;99649.39;128061;1101;22437;-76
2021/05/15 02:52:41;;;;;;;5.80;3.65;;;;;;;10.63;68.06;99646.50;128143;1098;22352;-76
2021/05/15 02:55:14;;;;;;;5.35;4.20;;;;;;;10.60;67.97;99649.52;128075;1099;22589;-76
2021/05/15 02:57:44;;;;;;;6.45;3.48;;;;;;;10.60;68.18;99660.08;128125;1102;22371;-75
2021/05/15 03:00:19;;;;;;;7.55;3.18;;;;;;;10.58;68.12;99652.32;128120;1098;22830;-76
2021/05/15 03:02:48;;;;;;;6.75;3.53;;;;;;;10.57;68.32;99660.45;128118;1101;22377;-74
2021/05/15 03:05:26;;;;;;;4.28;3.58;;;;;;;10.56;68.17;99654.34;128302;1098;24319;-75
2021/05/15 03:07:58;;;;;;;7.38;4.18;;;;;;;10.55;68.50;99662.44;128057;1100;22359;-76
2021/05/15 03:10:27;;;;;;;3.78;3.35;;;;;;;10.54;68.41;99666.09;128092;1101;22355;-74
2021/05/15 03:12:57;;;;;;;8.70;4.28;;;;;;;10.55;68.19;99662.44;128242;1101;22370;-75
2021/05/15 03:15:26;;;;;;;5.83;3.65;;;;;;;10.56;68.54;99671.99;128054;1101;22847;-75
2021/05/15 03:17:56;;;;;;;5.55;3.50;;;;;;;10.57;68.63;99677.11;128260;1101;22371;-76
2021/05/15 03:20:26;;;;;;;10.23;4.27;;;;;;;10.58;68.51;99675.28;128082;1101;22371;-76
2021/05/15 03:22:54;;;;;;;7.00;5.03;;;;;;;10.59;68.46;99680.36;128039;1102;22386;-75
2021/05/15 03:25:23;;;;;;;6.55;3.73;;;;;;;10.61;68.49;99685.48;128069;1101;22374;-76
2021/05/15 03:27:51;;;;;;;7.35;4.13;;;;;;;10.61;68.73;99682.84;128053;1101;22355;-75
2021/05/15 03:30:20;;;;;;;5.23;3.98;;;;;;;10.64;68.57;99684.30;128025;1099;24505;-75
2021/05/15 03:32:49;;;;;;;5.40;4.40;;;;;;;10.68;68.72;99689.02;128033;1101;22353;-75
2021/05/15 03:35:19;;;;;;;4.88;3.65;;;;;;;10.72;69.06;99689.47;128263;1101;22386;-74
2021/05/15 03:37:48;;;;;;;6.18;3.88;;;;;;;10.79;68.70;99685.89;128220;1099;22473;-76
2021/05/15 03:40:16;;;;;;;6.35;4.10;;;;;;;10.80;68.75;99684.91;128031;1102;22356;-76
2021/05/15 03:42:47;;;;;;;7.58;3.95;;;;;;;10.88;68.62;99680.52;128068;1101;22402;-76
2021/05/15 03:45:16;;;;;;;5.13;4.63;;;;;;;10.93;68.64;99681.60;128249;1101;22504;-75
2021/05/15 03:47:44;;;;;;;7.40;4.18;;;;;;;11.02;68.64;99688.39;128254;1101;22459;-75
2021/05/15 03:50:13;;;;;;;5.40;4.18;;;;;;;11.09;68.46;99688.46;128281;1101;22360;-76
2021/05/15 03:52:42;;;;;;;7.80;5.23;;;;;;;11.18;68.57;99691.81;128045;1102;22474;-75
2021/05/15 03:55:11;;;;;;;3.93;3.10;;;;;;;11.26;68.56;99689.88;128050;1100;22357;-76
2021/05/15 03:57:39;;;;;;;7.00;5.00;;;;;;;11.38;68.47;99695.47;128069;1100;22373;-75
2021/05/15 04:00:10;;;;;;;7.40;4.95;;;;;;;11.44;68.20;99688.62;128051;1102;22356;-75
2021/05/15 04:02:38;;;;;;;5.98;4.58;;;;;;;11.47;67.63;99683.77;128046;1098;24186;-75
2021/05/15 04:05:08;;;;;;;10.13;6.63;;;;;;;11.50;67.68;99688.68;128229;1100;24495;-76
2021/05/15 04:07:39;;;;;;;7.73;5.03;;;;;;;11.54;67.52;99694.41;128095;1102;22391;-75
2021/05/15 04:10:08;;;;;;;5.63;5.03;;;;;;;11.57;67.37;99696.67;128107;1101;22356;-76
2021/05/15 04:12:39;;;;;;;11.10;6.23;;;;;;;11.59;67.40;99697.28;128016;1100;24193;-75
2021/05/15 04:15:10;;;;;;;7.10;5.55;;;;;;;11.69;67.57;99699.61;128253;1100;22354;-75
2021/05/15 04:17:38;;;;;;;6.98;5.68;;;;;;;11.77;67.64;99699.48;128311;1098;24519;-75
2021/05/15 04:20:08;;;;;;;6.95;5.05;;;;;;;11.87;67.36;99704.48;128274;1101;22449;-76
2021/05/15 04:22:36;;;;;;;7.33;6.00;;;;;;;11.94;67.20;99705.34;128096;1102;22788;-75
2021/05/15 04:25:05;;;;;;;7.93;5.80;;;;;;;12.02;66.92;99707.84;128037;1102;22370;-75
2021/05/15 04:27:33;;;;;;;7.58;5.88;;;;;;;12.06;66.59;99711.73;128051;1098;22380;-75
2021/05/15 04:30:03;;;;;;;6.30;5.05;;;;;;;12.12;66.70;99702.20;128251;1101;22354;-75
2021/05/15 04:32:32;;;;;;;8.73;5.38;;;;;;;12.23;66.45;99704.33;128032;1100;22405;-75
2021/05/15 04:35:00;;;;;;;9.15;6.63;;;;;;;12.31;66.21;99712.11;128260;1100;24246;-76
2021/05/15 04:37:28;;;;;;;7.40;6.03;;;;;;;12.39;66.04;99711.13;128235;1101;23129;-76
2021/05/15 04:39:57;;;;;;;8.03;5.50;;;;;;;12.43;65.89;99717.70;128042;1102;23238;-76
2021/05/15 04:42:26;;;;;;;8.13;5.50;;;;;;;12.51;65.75;99725.47;128011;1102;22373;-76
2021/05/15 04:44:54;;;;;;;6.98;5.33;;;;;;;12.58;65.53;99722.86;128110;1101;22458;-75
2021/05/15 04:47:23;;;;;;;8.83;5.75;;;;;;;12.66;65.34;99723.52;128282;1101;23314;-76
2021/05/15 04:49:51;;;;;;;10.50;6.30;;;;;;;12.76;65.38;99725.78;128037;1102;22385;-76
2021/05/15 04:52:20;;;;;;;9.03;4.98;;;;;;;12.85;64.79;99732.56;128044;1103;23292;-76
2021/05/15 04:54:51;;;;;;;8.53;5.50;;;;;;;12.90;64.78;99732.80;128041;1101;22804;-76
2021/05/15 04:57:19;;;;;;;7.83;5.20;;;;;;;13.01;65.04;99727.94;128049;1101;22125;-76
2021/05/15 04:59:48;;;;;;;11.10;5.50;;;;;;;13.13;64.46;99727.17;128058;1100;24475;-77
2021/05/15 05:02:16;;;;;;;8.58;5.40;;;;;;;13.28;64.10;99729.68;128277;1100;24166;-76
2021/05/15 05:04:45;;;;;;;7.78;4.45;;;;;;;13.42;63.37;99733.98;128065;1101;22340;-76
2021/05/15 05:07:13;;;;;;;4.83;3.65;;;;;;;13.59;63.17;99731.77;128318;1099;22370;-76
2021/05/15 05:09:42;;;;;;;5.65;4.20;;;;;;;13.73;61.95;99731.78;128131;1099;24493;-75
2021/05/15 05:12:10;;;;;;;5.58;4.10;;;;;;;13.95;62.41;99735.06;128263;1100;24952;-76
2021/05/15 05:14:39;;;;;;;4.48;3.60;;;;;;;14.22;62.09;99736.67;128085;1100;24492;-76
2021/05/15 05:17:07;;;;;;;5.85;3.83;;;;;;;14.47;61.15;99736.84;128296;1101;22452;-76
2021/05/15 05:19:36;;;;;;;6.20;4.38;;;;;;;14.70;60.40;99732.94;128083;1102;22347;-76
2021/05/15 05:22:04;;;;;;;5.75;3.83;;;;;;;14.96;59.89;99740.81;128094;1102;22429;-76
2021/05/15 05:24:33;;;;;;;7.28;3.68;;;;;;;15.30;59.26;99733.48;128242;1100;24472;-77
2021/05/15 05:27:02;;;;;;;4.55;3.08;;;;;;;15.59;58.33;99742.69;128031;1102;22442;-77
2021/05/15 05:29:32;;;;;;;4.38;2.88;;;;;;;15.84;57.17;99747.28;128001;1103;22352;-76
2021/05/15 05:32:02;;;;;;;4.25;2.98;;;;;;;16.08;56.36;99743.79;128004;1101;24186;-77
2021/05/15 05:34:36;;;;;;;5.05;3.53;;;;;;;16.32;55.86;99744.79;128269;1098;22456;-76
2021/05/15 05:37:04;;;;;;;;;;;;;;;16.61;55.41;99743.27;128055;1101;22352;-77
2021/05/15 05:39:33;;;;;;;3.68;2.70;;;;;;;16.78;54.80;99748.05;128044;1098;21387;-76
2021/05/15 05:42:02;;;;;;;5.68;2.98;;;;;;;16.97;54.08;99744.33;128055;1101;22339;-76
2021/05/15 05:44:31;;;;;;;3.95;2.60;;;;;;;17.23;53.37;99753.85;128079;1101;23044;-76
2021/05/15 05:46:59;;;;;;;5.13;2.98;;;;;;;17.55;52.62;99757.08;128274;1098;22343;-76
2021/05/15 05:49:28;;;;;;;4.30;2.63;;;;;;;17.71;51.59;99755.63;128283;1101;22352;-76
2021/05/15 05:51:56;;;;;;;3.68;2.95;;;;;;;18.03;51.37;99758.85;128099;1101;22339;-76
2021/05/15 05:54:25;;;;;;;4.50;3.15;;;;;;;18.37;50.50;99751.07;128084;1101;22339;-76
2021/05/15 05:56:53;;;;;;;3.70;2.90;;;;;;;18.57;49.21;99750.70;128296;1101;22348;-76
2021/05/15 05:59:22;;;;;;;5.90;3.05;;;;;;;18.72;48.51;99751.05;128286;1098;22351;-76
2021/05/15 06:01:50;;;;;;;3.35;2.43;;;;;;;19.02;48.56;99758.07;128304;1101;22374;-75
2021/05/15 06:04:19;;;;;;;3.53;2.73;;;;;;;19.32;47.67;99754.35;128152;1101;23932;-79
2021/05/15 06:06:47;;;;;;;6.70;2.58;;;;;;;19.45;46.45;99754.06;128302;1098;24488;-79
2021/05/15 06:09:18;;;;;;;3.03;2.30;;;;;;;19.66;46.34;99765.97;128299;1101;23273;-78
2021/05/15 06:11:47;;;;;;;4.40;2.60;;;;;;;19.84;45.63;99773.00;128100;1098;22494;-77
2021/05/15 06:14:15;;;;;;;5.75;2.93;;;;;;;19.97;45.67;99772.67;128065;1099;22370;-76
2021/05/15 06:16:44;;;;;;;4.15;2.68;;;;;;;20.16;44.96;99771.38;128090;1098;24489;-76
2021/05/15 06:19:12;;;;;;;5.28;2.60;;;;;;;20.44;44.18;99770.44;128295;1101;23390;-78
2021/05/15 06:21:41;;;;;;;3.97;2.23;;;;;;;20.71;44.01;99779.69;128106;1101;22382;-78
2021/05/15 06:24:10;;;;;;;4.28;2.65;;;;;;;20.80;42.96;99778.20;128048;1101;24983;-78
2021/05/15 06:26:39;;;;;;;3.98;2.58;;;;;;;20.93;43.01;99780.52;128310;1098;22459;-78
2021/05/15 06:29:07;;;;;;;3.95;2.40;;;;;;;21.10;42.53;99777.77;128254;1101;22352;-78
2021/05/15 06:31:36;;;;;;;3.88;2.80;;;;;;;21.28;42.35;99773.92;128291;1101;22455;-78
2021/05/15 06:34:05;;;;;;;4.98;2.20;;;;;;;21.55;42.03;99780.14;128288;1101;23294;-78
2021/05/15 06:36:33;;;;;;;3.70;2.28;;;;;;;21.72;40.81;99781.91;128265;1098;24281;-79
2021/05/15 06:39:02;;;;;;;4.08;2.25;;;;;;;21.89;40.40;99779.09;128122;1102;22366;-77
2021/05/15 06:41:31;;;;;;;4.35;2.83;;;;;;;22.02;40.32;99786.73;128299;1101;23109;-77
2021/05/15 06:43:59;;;;;;;11.13;2.25;;;;;;;22.17;40.17;99788.78;128083;1102;22351;-77
2021/05/15 06:46:28;;;;;;;4.10;2.93;;;;;;;22.33;39.31;99789.71;128278;1101;22383;-78
2021/05/15 06:48:57;;;;;;;3.48;2.25;;;;;;;22.49;39.25;99786.02;128226;1101;22804;-78
2021/05/15 06:51:26;;;;;;;3.68;2.80;;;;;;;22.63;38.22;99797.16;128257;1101;23068;-76
2021/05/15 06:54:06;;;;;;;4.98;3.20;;;;;;;22.59;38.54;99804.92;128324;1101;22352;-82
2021/05/15 06:56:35;;;;;;;3.93;2.30;;;;;;;22.81;38.53;99795.90;128469;1101;22330;-77
2021/05/15 06:59:04;;;;;;;5.05;2.70;;;;;;;22.93;37.63;99797.34;128320;1098;24231;-76
2021/05/15 07:01:32;;;;;;;3.95;2.00;;;;;;;23.03;37.48;99790.38;128089;1101;22348;-77
2021/05/15 07:04:01;;;;;;;4.35;2.00;;;;;;;23.13;37.29;99790.42;128095;1101;22667;-77
2021/05/15 07:06:29;;;;;;;7.90;2.58;;;;;;;23.23;37.05;99790.45;128294;1101;22327;-76
2021/05/15 07:08:58;;;;;;;5.78;2.80;;;;;;;23.39;36.79;99788.58;128355;1101;22331;-78
2021/05/15 07:11:26;;;;;;;6.05;2.80;;;;;;;23.55;36.47;99790.23;128108;1101;22341;-78
2021/05/15 07:13:54;;;;;;;4.48;3.18;;;;;;;23.68;36.29;99791.64;128307;1101;22346;-78
2021/05/15 07:16:23;;;;;;;6.35;3.23;;;;;;;23.82;35.94;99787.33;128292;1098;22360;-79
2021/05/15 07:18:51;;;;;;;6.08;3.65;;;;;;;23.80;35.60;99783.30;128105;1101;22330;-77
2021/05/15 07:21:20;;;;;;;7.30;3.70;;;;;;;23.80;35.74;99777.91;128101;1102;23275;-78
2021/05/15 07:23:50;;;;;;;7.63;4.13;;;;;;;23.92;35.26;99784.63;128258;1101;22361;-81
2021/05/15 07:26:19;;;;;;;3.90;3.30;;;;;;;24.01;35.06;99784.91;128306;1101;22348;-78
2021/05/15 07:28:47;;;;;;;8.30;3.90;;;;;;;24.15;35.26;99780.58;128220;1101;22343;-78
2021/05/15 07:31:16;;;;;;;6.15;4.18;;;;;;;24.23;34.81;99795.44;128276;1101;23245;-78
2021/05/15 07:33:44;;;;;;;4.43;3.90;;;;;;;24.28;34.70;99789.22;128103;1102;22342;-77
2021/05/15 07:36:12;;;;;;;6.30;4.23;;;;;;;24.35;34.64;99793.24;128316;1098;22446;-78
2021/05/15 07:38:42;;;;;;;6.60;4.25;;;;;;;24.41;34.54;99792.19;128322;1098;22337;-77
2021/05/15 07:41:10;;;;;;;5.00;4.28;;;;;;;24.43;34.20;99794.63;128114;1098;22344;-78
2021/05/15 07:43:39;;;;;;;5.10;4.60;;;;;;;24.55;33.99;99792.42;128301;1101;22437;-77
2021/05/15 07:46:10;;;;;;;5.35;4.70;;;;;;;24.61;34.49;99793.23;128307;1101;22343;-78
2021/05/15 07:48:39;;;;;;;5.55;4.93;;;;;;;24.73;33.74;99791.05;128324;1098;22374;-77
2021/05/15 07:51:21;;;;;;;5.53;4.73;;;;;;;24.79;33.81;99779.14;128309;1098;22333;-77
2021/05/15 07:53:53;;;;;;;5.95;4.83;;;;;;;24.93;33.28;99790.16;128156;1098;22329;-78
2021/05/15 07:56:21;;;;;;;9.28;5.03;;;;;;;25.01;33.44;99783.37;128085;1098;23196;-78
2021/05/15 07:58:49;;;;;;;7.30;6.13;;;;;;;24.98;33.10;99789.32;128133;1102;22331;-77
2021/05/15 08:01:18;;;;;;;5.23;4.58;;;;;;;24.99;33.17;99785.52;128292;1098;22352;-77
2021/05/15 08:03:47;;;;;;;5.30;4.70;;;;;;;25.06;32.70;99788.77;128285;1101;22369;-76
2021/05/15 08:06:15;;;;;;;6.48;5.05;;;;;;;25.18;32.72;99786.55;128291;1098;22341;-77
2021/05/15 08:08:44;;;;;;;6.10;4.88;;;;;;;25.21;32.57;99794.11;128334;1098;22309;-77
2021/05/15 08:11:12;;;;;;;5.70;5.10;;;;;;;25.37;32.46;99785.92;128283;1101;22339;-77
2021/05/15 08:13:41;;;;;;;6.43;4.78;;;;;;;25.49;32.59;99784.50;128363;1098;24804;-77
2021/05/15 08:16:09;;;;;;;5.85;4.00;;;;;;;25.56;32.17;99793.11;128239;1098;22342;-77
2021/05/15 08:18:38;;;;;;;7.70;5.05;;;;;;;25.76;31.83;99797.56;128117;1102;22645;-77
2021/05/15 08:21:08;;;;;;;5.13;4.63;;;;;;;25.68;31.52;99794.64;128032;1102;22348;-77
2021/05/15 08:23:40;;;;;;;7.93;4.70;;;;;;;25.75;31.36;99795.93;128127;1102;22333;-77
2021/05/15 08:26:11;;;;;;;9.80;4.88;;;;;;;25.67;31.12;99803.85;128307;1101;22330;-77
2021/05/15 08:28:45;;;;;;;5.55;4.58;;;;;;;25.86;31.74;99804.00;128139;1101;22410;-78
2021/05/15 08:31:14;;;;;;;6.78;4.53;;;;;;;25.96;31.24;99798.53;128097;1102;22348;-78
2021/05/15 08:33:42;;;;;;;5.25;4.63;;;;;;;26.09;31.11;99800.59;128311;1098;24465;-78
2021/05/15 08:36:11;;;;;;;5.63;4.65;;;;;;;26.11;30.65;99803.80;128295;1101;22333;-78
2021/05/15 08:38:40;;;;;;;5.75;4.63;;;;;;;26.15;30.54;99802.13;128085;1101;22348;-76
2021/05/15 08:41:10;;;;;;;6.05;4.95;;;;;;;26.16;30.58;99795.65;128086;1101;22345;-76
2021/05/15 08:43:43;;;;;;;7.58;5.23;;;;;;;26.17;30.56;99802.67;128335;1101;22333;-77
2021/05/15 08:46:14;;;;;;;5.60;4.48;;;;;;;26.15;30.64;99793.21;128323;1101;22789;-78
2021/05/15 08:48:44;;;;;;;5.45;4.75;;;;;;;26.22;30.23;99797.19;128329;1101;22402;-77
2021/05/15 08:51:12;;;;;;;5.83;5.18;;;;;;;26.21;30.05;99790.17;128057;1102;22357;-76
2021/05/15 08:53:43;;;;;;;7.53;5.18;;;;;;;26.27;30.33;99796.36;128289;1101;22348;-77
2021/05/15 08:56:11;;;;;;;6.10;5.48;;;;;;;26.31;29.94;99791.17;128398;1098;24499;-77
2021/05/15 08:58:41;;;;;;;6.38;4.60;;;;;;;26.34;30.01;99793.31;128351;1098;22361;-77
2021/05/15 09:01:14;;;;;;;5.48;4.98;;;;;;;26.28;30.05;99787.13;128258;1101;22709;-78
2021/05/15 09:03:43;;;;;;;6.25;4.85;;;;;;;26.34;29.84;99790.61;128346;1100;23301;-78
2021/05/15 09:06:13;;;;;;;7.53;4.50;;;;;;;26.49;29.69;99794.01;128345;1098;24997;-77
2021/05/15 09:08:48;;;;;;;7.93;5.58;;;;;;;26.70;29.16;99789.16;128160;1098;22373;-77
2021/05/15 09:11:18;;;;;;;6.38;5.25;;;;;;;26.97;29.49;99796.70;128335;1101;23067;-78
2021/05/15 09:13:54;;;;;;;5.00;4.40;;;;;;;27.01;28.58;99798.83;128137;1102;22377;-77
2021/05/15 09:16:24;;;;;;;5.80;5.18;;;;;;;27.05;28.64;99792.53;128381;1101;22401;-77
2021/05/15 09:19:04;;;;;;;7.95;5.83;;;;;;;27.16;28.25;99791.34;128360;1098;24464;-77
2021/05/15 09:21:34;;;;;;;5.30;4.75;;;;;;;27.37;28.10;99785.64;128352;1101;22361;-76
2021/05/15 09:24:06;;;;;;;5.67;4.87;;;;;;;27.42;27.96;99780.13;128400;1098;24237;-77
2021/05/15 09:26:36;;;;;;;6.10;4.78;;;;;;;27.41;28.25;99786.66;128293;1098;24153;-77
2021/05/15 09:29:06;;;;;;;5.40;4.45;;;;;;;27.36;27.95;99781.33;128090;1101;24475;-77
2021/05/15 09:31:38;;;;;;;5.55;4.53;;;;;;;27.27;28.10;99780.36;128128;1104;22443;-77
2021/05/15 09:34:10;;;;;;;5.95;4.43;;;;;;;27.17;27.52;99784.02;128014;1104;22352;-77
2021/05/15 09:36:46;;;;;;;6.05;4.45;;;;;;;26.98;27.46;99783.95;128074;1104;22339;-76
2021/05/15 09:39:22;;;;;;;5.43;4.70;;;;;;;26.95;27.59;99771.78;128027;1101;22389;-76
2021/05/15 09:41:58;;;;;;;5.77;5.03;;;;;;;26.90;27.07;99765.64;128009;1104;23110;-77
2021/05/15 09:44:35;;;;;;;5.65;5.03;;;;;;;26.88;27.68;99765.11;128151;1104;24070;-77
2021/05/15 09:47:05;;;;;;;8.05;5.18;;;;;;;27.00;28.11;99770.92;128115;1102;22469;-77
2021/05/15 09:49:36;;;;;;;9.95;4.65;;;;;;;27.18;28.38;99770.16;128324;1101;22361;-78
2021/05/15 09:52:08;;;;;;;18.83;5.68;;;;;;;27.27;27.82;99774.94;128083;1098;24453;-77
2021/05/15 09:54:45;;;;;;;6.20;5.18;;;;;;;27.11;27.41;99782.44;128329;1101;22704;-77
2021/05/15 09:57:16;;;;;;;7.63;5.18;;;;;;;26.75;27.62;99782.87;128441;1098;23128;-78
2021/05/15 09:59:51;;;;;;;5.73;4.63;;;;;;;26.64;28.19;99776.77;128342;1101;22800;-77
2021/05/15 10:02:21;;;;;;;5.00;4.48;;;;;;;26.74;28.37;99778.55;128212;1098;24181;-76
2021/05/15 10:04:51;;;;;;;7.95;4.60;;;;;;;26.83;27.88;99768.70;128323;1098;22358;-78
2021/05/15 10:07:31;;;;;;;5.78;5.10;;;;;;;26.76;27.86;99781.80;128259;1101;22449;-78
2021/05/15 10:10:05;;;;;;;6.53;4.60;;;;;;;26.68;28.26;99775.09;128252;1098;24239;-78
2021/05/15 10:12:36;;;;;;;6.88;5.88;;;;;;;26.80;27.80;99782.83;128407;1101;22348;-77
2021/05/15 10:15:08;;;;;;;4.83;4.33;;;;;;;26.87;27.52;99777.05;128317;1101;23301;-77
2021/05/15 10:17:38;;;;;;;5.13;3.98;;;;;;;26.82;27.32;99771.68;128309;1101;22374;-77
2021/05/15 10:20:10;;;;;;;3.83;3.37;;;;;;;26.74;27.46;99770.42;128049;1098;25000;-77
2021/05/15 10:22:41;;;;;;;4.63;3.70;;;;;;;26.73;27.34;99766.91;128363;1101;22346;-77
2021/05/15 10:25:15;;;;;;;8.90;6.00;;;;;;;26.62;26.76;99762.69;128146;1102;22929;-75
2021/05/15 10:27:44;;;;;;;5.95;4.20;;;;;;;26.23;27.36;99762.83;128431;1098;24987;-76
2021/05/15 10:30:22;;;;;;;5.25;4.20;;;;;;;25.98;27.60;99758.45;128312;1101;22361;-77
2021/05/15 10:32:58;;;;;;;5.00;4.35;;;;;;;25.66;27.63;99757.06;128052;1098;22349;-76
2021/05/15 10:35:41;;;;;;;5.28;4.00;;;;;;;25.35;28.04;99759.95;128135;1098;22344;-78
2021/05/15 10:38:13;;;;;;;16.17;6.93;;;;;;;25.17;28.52;99755.22;128299;1100;22346;-77
2021/05/15 10:40:51;;;;;;;4.80;3.77;;;;;;;25.15;29.46;99751.97;128007;1105;22349;-77
2021/05/15 10:43:32;;;;;;;6.05;3.80;;;;;;;25.11;29.17;99750.89;128054;1104;22716;-78
2021/05/15 10:46:21;;;;;;;4.83;3.73;;;;;;;25.05;29.21;99757.40;127998;1101;24469;-77
2021/05/15 10:49:10;;;;;;;4.43;3.53;;;;;;;24.86;29.28;99746.43;128022;1101;22338;-78
2021/05/15 10:51:49;;;;;;;10.48;7.88;;;;;;;24.61;29.09;99741.92;127960;1104;22462;-77
2021/05/15 10:55:02;;;;;;;6.68;5.48;;;;;;;24.16;29.21;99739.04;127996;1101;24498;-77
2021/05/15 10:57:31;;;;;;;5.15;3.65;;;;;;;23.81;30.01;99729.08;127543;1105;24517;-77
2021/05/15 11:00:06;;;;;;;6.70;3.75;;;;;;;23.70;30.47;99719.39;127615;1105;22368;-77
2021/05/15 11:02:39;;;;;;;7.93;3.13;;;;;;;23.52;30.58;99725.27;128029;1104;22362;-77
2021/05/15 11:05:17;;;;;;;6.58;3.85;;;;;;;23.40;30.60;99722.84;128020;1104;22381;-78
2021/05/15 11:07:47;;;;;;;5.23;3.90;;;;;;;23.22;30.67;99713.36;127996;1101;22896;-77
2021/05/15 11:10:19;;;;;;;5.38;3.20;;;;;;;23.18;31.61;99707.70;127624;1105;22398;-77
2021/05/15 11:12:51;;;;;;;6.87;3.30;;;;;;;23.21;31.39;99711.75;127609;1101;22378;-78
2021/05/15 11:15:27;;;;;;;6.28;3.70;;;;;;;22.91;30.93;99704.38;128050;1101;24257;-79
2021/05/15 11:18:06;;;;;;;7.25;3.48;;;;;;;22.72;32.06;99712.11;127622;1103;22376;-78
2021/05/15 11:20:47;;;;;;;3.23;2.28;;;;;;;22.76;31.71;99707.84;127978;1104;22819;-77
2021/05/15 11:23:20;;;;;;;5.08;2.50;;;;;;;22.78;31.68;99705.67;128011;1104;23139;-77
2021/05/15 11:25:58;;;;;;;3.48;2.43;;;;;;;22.72;31.55;99704.03;127717;1102;24439;-77
2021/05/15 11:28:29;;;;;;;4.80;2.30;;;;;;;22.78;31.48;99692.21;127646;1101;22365;-77
2021/05/15 11:31:09;;;;;;;5.50;2.50;;;;;;;22.87;31.73;99690.63;127659;1105;22382;-77
2021/05/15 11:33:39;;;;;;;4.00;2.25;;;;;;;22.93;31.89;99683.42;128035;1101;22368;-77
2021/05/15 11:36:13;;;;;;;4.38;2.35;;;;;;;22.93;31.96;99688.80;128124;1101;22365;-77
2021/05/15 11:38:43;;;;;;;4.85;2.50;;;;;;;22.91;31.79;99685.52;128158;1098;24252;-79